Time;durP1;ratioP1;P1;durP2;ratioP2;P2;SDS_P1;SDS_P2;PMS_P1;PMS_P2;Temp;Humidity;BMP_temperature;BMP_pressure;BME280_temperature;BME280_humidity;BME280_pressure;Samples;Min_cycle;Max_cycle;Signal;HPM_P1;HPM_P2
2022/06/28 00:01:06;;;;;;;9.50;5.00;;;;;;;23.10;55.02;100520.14;107801;1276;99303;-89
2022/06/28 00:03:42;;;;;;;7.20;4.90;;;;;;;23.00;55.34;100519.96;107571;1276;138270;-89
2022/06/28 00:06:30;;;;;;;7.60;4.90;;;;;;;22.91;55.61;100518.89;107668;1276;93304;-89
2022/06/28 00:09:21;;;;;;;8.90;5.00;;;;;;;22.83;55.91;100526.66;107576;1276;138982;-89
2022/06/28 00:11:53;;;;;;;7.00;4.50;;;;;;;22.80;56.26;100531.48;107684;1275;109695;-89
2022/06/28 00:17:08;;;;;;;7.60;5.00;;;;;;;22.69;56.65;100535.13;107818;1276;108537;-89
2022/06/28 00:19:38;;;;;;;8.20;5.30;;;;;;;22.63;56.75;100535.98;107742;1276;138471;-90
2022/06/28 00:22:06;;;;;;;8.00;4.40;;;;;;;22.59;56.91;100536.30;107588;1276;93274;-90
2022/06/28 00:24:34;;;;;;;6.90;4.50;;;;;;;22.57;57.06;100548.23;107816;1276;108687;-89
2022/06/28 00:27:23;;;;;;;10.00;5.10;;;;;;;22.52;57.27;100547.63;107746;1275;138374;-90
2022/06/28 00:29:52;;;;;;;6.80;5.10;;;;;;;22.46;57.47;100547.17;107747;1276;106856;-89
2022/06/28 00:32:25;;;;;;;7.10;5.00;;;;;;;22.42;57.64;100547.86;107674;1276;139216;-89
2022/06/28 00:34:53;;;;;;;7.30;4.90;;;;;;;22.38;57.62;100546.70;107691;1276;93344;-89
2022/06/28 00:37:46;;;;;;;11.00;5.10;;;;;;;22.35;58.06;100542.59;107788;1276;108724;-89
2022/06/28 00:40:13;;;;;;;9.70;5.60;;;;;;;22.31;58.09;100548.65;107812;1276;98319;-89
2022/06/28 00:43:09;;;;;;;8.30;5.20;;;;;;;22.26;58.32;100541.91;107613;1276;108847;-89
2022/06/28 00:45:37;;;;;;;7.30;5.10;;;;;;;22.22;58.35;100538.05;107766;1274;138979;-90
2022/06/28 00:48:06;;;;;;;7.80;5.10;;;;;;;22.17;58.98;100533.00;107878;1274;94737;-90
2022/06/28 00:50:37;;;;;;;7.20;5.00;;;;;;;22.13;58.97;100535.29;107746;1274;138201;-90
2022/06/28 00:53:12;;;;;;;8.30;4.90;;;;;;;22.09;59.23;100539.40;107887;1274;98867;-89
2022/06/28 00:55:43;;;;;;;6.90;5.10;;;;;;;22.04;59.34;100544.78;107876;1274;139203;-89
2022/06/28 00:58:18;;;;;;;8.30;5.70;;;;;;;21.99;59.66;100553.98;107990;1274;93112;-90
2022/06/28 01:00:49;;;;;;;8.60;5.30;;;;;;;21.97;59.52;100551.09;108125;1274;92553;-89
2022/06/28 01:03:20;;;;;;;8.20;5.20;;;;;;;21.96;59.52;100551.33;107942;1274;137345;-89
2022/06/28 01:06:08;;;;;;;8.70;4.70;;;;;;;21.94;59.71;100552.36;107969;1274;98457;-90
2022/06/28 01:08:56;;;;;;;7.40;4.90;;;;;;;21.92;59.93;100551.98;107520;1276;138844;-89
2022/06/28 01:11:29;;;;;;;8.30;5.00;;;;;;;21.89;59.93;100552.17;107718;1276;93478;-89
2022/06/28 01:14:18;;;;;;;8.20;5.30;;;;;;;21.87;60.21;100546.15;107671;1274;138918;-89
2022/06/28 01:17:52;;;;;;;7.00;4.50;;;;;;;21.82;60.27;100548.36;107518;1276;109122;-89
2022/06/28 01:20:52;;;;;;;8.30;4.90;;;;;;;21.78;60.34;100547.02;107464;1276;138168;-90
2022/06/28 01:23:42;;;;;;;7.90;5.20;;;;;;;21.76;60.40;100551.52;107736;1274;107564;-89
2022/06/28 01:26:25;;;;;;;7.90;5.10;;;;;;;21.72;60.74;100549.79;107659;1276;137705;-90
2022/06/28 01:28:53;;;;;;;9.00;5.40;;;;;;;21.68;60.52;100550.54;107895;1276;92975;-89
2022/06/28 01:31:42;;;;;;;7.30;4.90;;;;;;;21.64;60.82;100550.88;107629;1274;137406;-90
2022/06/28 01:34:11;;;;;;;9.70;5.30;;;;;;;21.64;60.91;100551.92;107842;1276;97314;-90
2022/06/28 01:36:39;;;;;;;8.10;4.80;;;;;;;21.63;61.13;100551.71;107664;1274;108325;-90
2022/06/28 01:39:07;;;;;;;8.70;5.20;;;;;;;21.61;61.34;100555.23;107586;1276;138459;-90
2022/06/28 01:41:36;;;;;;;7.50;5.00;;;;;;;21.60;61.30;100558.74;107887;1274;93356;-90
2022/06/28 01:44:18;;;;;;;8.00;5.50;;;;;;;21.57;61.35;100565.29;107711;1274;138620;-89
2022/06/28 01:47:01;;;;;;;7.00;5.10;;;;;;;21.53;61.63;100567.15;107793;1276;96478;-90
2022/06/28 01:50:17;;;;;;;8.80;5.10;;;;;;;21.49;61.72;100562.17;107433;1274;138492;-89
2022/06/28 01:53:10;;;;;;;7.70;5.30;;;;;;;21.47;61.78;100563.40;107879;1274;93337;-90
2022/06/28 01:56:26;;;;;;;7.90;5.20;;;;;;;21.41;62.17;100565.23;107764;1274;138248;-90
2022/06/28 01:59:05;;;;;;;10.30;5.70;;;;;;;21.37;62.39;100563.16;107795;1274;109237;-89
2022/06/28 02:01:51;;;;;;;8.50;5.80;;;;;;;21.30;62.39;100560.23;107757;1274;139233;-89
2022/06/28 02:04:25;;;;;;;7.80;5.60;;;;;;;21.26;62.79;100550.95;107810;1274;105404;-90
2022/06/28 02:07:19;;;;;;;8.80;5.80;;;;;;;21.20;63.08;100546.67;107867;1274;93733;-90
2022/06/28 02:09:51;;;;;;;6.70;5.00;;;;;;;21.14;63.53;100546.55;107751;1274;138991;-90
2022/06/28 02:12:20;;;;;;;8.70;5.00;;;;;;;21.08;63.78;100542.10;107873;1274;108735;-90
2022/06/28 02:14:48;;;;;;;7.50;5.20;;;;;;;21.04;63.79;100531.83;107615;1276;138726;-90
2022/06/28 02:17:16;;;;;;;8.80;5.40;;;;;;;21.02;64.06;100531.46;107804;1274;106831;-90
2022/06/28 02:20:04;;;;;;;9.50;5.90;;;;;;;20.99;64.25;100523.73;107761;1274;138321;-90
2022/06/28 02:22:36;;;;;;;8.70;6.40;;;;;;;20.96;64.25;100536.23;107674;1274;93099;-90
2022/06/28 02:25:25;;;;;;;9.00;6.00;;;;;;;20.97;64.24;100546.95;107741;1276;109629;-90
2022/06/28 02:28:13;;;;;;;8.90;5.80;;;;;;;20.98;64.12;100551.05;107836;1274;98462;-90
2022/06/28 02:30:43;;;;;;;8.80;6.00;;;;;;;20.98;64.13;100559.14;107833;1275;107852;-91
2022/06/28 02:33:13;;;;;;;11.10;5.50;;;;;;;20.97;64.25;100562.27;107601;1276;139333;-89
2022/06/28 02:41:18;;;;;;;7.40;5.30;;;;;;;20.93;64.64;100560.94;107848;1276;98742;-90
2022/06/28 02:44:27;;;;;;;;;;;;;;;20.90;64.96;100560.80;107567;1276;138337;-88
2022/06/28 02:47:19;;;;;;;10.20;5.80;;;;;;;20.83;65.37;100566.80;107813;1276;93419;-89
2022/06/28 02:49:48;;;;;;;8.70;5.40;;;;;;;20.82;65.60;100570.13;107744;1276;139460;-89
2022/06/28 02:52:19;;;;;;;9.60;5.50;;;;;;;20.78;65.50;100573.33;107664;1276;108687;-88
2022/06/28 02:55:11;;;;;;;8.70;5.30;;;;;;;20.78;65.68;100565.35;107881;1276;98372;-89
2022/06/28 02:58:02;;;;;;;9.20;6.00;;;;;;;20.78;65.84;100571.14;107541;1276;138217;-89
2022/06/28 03:00:32;;;;;;;8.50;5.70;;;;;;;20.80;65.58;100566.16;107686;1276;93180;-88
2022/06/28 03:03:00;;;;;;;9.80;5.90;;;;;;;20.83;65.55;100567.21;107718;1276;138707;-89
2022/06/28 03:06:09;;;;;;;8.60;5.60;;;;;;;20.84;65.48;100567.30;107874;1276;108673;-89
2022/06/28 03:08:38;;;;;;;8.80;5.80;;;;;;;20.84;65.50;100561.36;107766;1276;139243;-89
2022/06/28 03:11:07;;;;;;;11.30;5.40;;;;;;;20.84;65.57;100560.45;107778;1276;108171;-90
2022/06/28 03:13:39;;;;;;;12.00;5.60;;;;;;;20.86;65.55;100560.83;107718;1276;92994;-89
2022/06/28 03:16:48;;;;;;;9.60;5.40;;;;;;;20.91;65.52;100563.23;107841;1276;93014;-88
2022/06/28 03:19:16;;;;;;;8.20;5.40;;;;;;;20.93;65.45;100569.26;107779;1276;108086;-89
2022/06/28 03:21:44;;;;;;;7.70;5.30;;;;;;;20.93;65.43;100563.08;107652;1276;138869;-90
2022/06/28 03:24:12;;;;;;;7.70;4.60;;;;;;;20.94;65.81;100565.73;107657;1276;109178;-89
2022/06/28 03:26:40;;;;;;;9.30;5.90;;;;;;;20.95;65.55;100566.79;107580;1276;138363;-89
2022/06/28 03:29:08;;;;;;;8.20;5.70;;;;;;;20.96;65.78;100563.65;107751;1276;93292;-89
2022/06/28 03:31:39;;;;;;;12.20;5.30;;;;;;;20.98;65.70;100559.67;107866;1276;107972;-88
2022/06/28 03:34:09;;;;;;;9.60;5.40;;;;;;;21.01;65.75;100553.70;107754;1276;96944;-89
2022/06/28 03:36:38;;;;;;;9.00;5.40;;;;;;;21.04;65.84;100554.96;107704;1276;107737;-89
2022/06/28 03:39:27;;;;;;;10.00;5.80;;;;;;;21.06;65.66;100562.04;107578;1276;138611;-89
2022/06/28 03:41:56;;;;;;;7.80;5.60;;;;;;;21.11;65.53;100564.27;107811;1275;92946;-88
2022/06/28 03:44:24;;;;;;;9.00;6.00;;;;;;;21.15;65.50;100561.30;107661;1276;138487;-88
2022/06/28 03:46:53;;;;;;;9.80;5.00;;;;;;;21.17;65.31;100564.76;107849;1276;97000;-88
2022/06/28 03:49:41;;;;;;;11.70;5.30;;;;;;;21.26;65.05;100568.33;107740;1276;108390;-89
2022/06/28 03:52:33;;;;;;;9.90;5.80;;;;;;;21.31;65.14;100569.77;107758;1276;93362;-88
2022/06/28 03:55:24;;;;;;;9.60;5.80;;;;;;;21.37;65.08;100572.92;107875;1276;93640;-88
2022/06/28 03:57:52;;;;;;;10.60;5.90;;;;;;;21.42;65.20;100575.67;107527;1276;137869;-89
2022/06/28 04:00:21;;;;;;;8.80;5.10;;;;;;;21.46;64.72;100575.20;107693;1276;98754;-88
2022/06/28 04:02:50;;;;;;;10.50;5.80;;;;;;;21.52;64.79;100572.08;107516;1276;139050;-88
2022/06/28 04:05:29;;;;;;;8.90;5.40;;;;;;;21.56;64.81;100568.80;107745;1276;93017;-88
2022/06/28 04:08:18;;;;;;;10.00;5.30;;;;;;;21.61;64.52;100566.11;107630;1276;139393;-89
2022/06/28 04:10:49;;;;;;;10.80;5.40;;;;;;;21.69;64.34;100568.75;107711;1276;109168;-89
2022/06/28 04:13:23;;;;;;;9.80;5.80;;;;;;;21.76;64.06;100567.04;107685;1276;99372;-89
2022/06/28 04:15:53;;;;;;;9.10;5.70;;;;;;;21.79;63.82;100561.98;107604;1276;141807;-88
2022/06/28 04:18:24;;;;;;;8.40;5.60;;;;;;;21.83;63.92;100562.70;107869;1276;93379;-88
2022/06/28 04:20:58;;;;;;;9.10;5.40;;;;;;;21.88;63.82;100559.84;107789;1275;138239;-89
2022/06/28 04:23:27;;;;;;;7.50;4.80;;;;;;;21.95;63.98;100554.11;107666;1274;108890;-90
2022/06/28 04:25:55;;;;;;;7.70;5.40;;;;;;;22.01;63.42;100549.70;107521;1276;140262;-88
2022/06/28 04:28:33;;;;;;;8.30;5.30;;;;;;;22.08;62.91;100549.92;107636;1276;108749;-89
2022/06/28 04:31:06;;;;;;;9.50;5.90;;;;;;;22.16;62.75;100547.55;107589;1276;92993;-89
2022/06/28 04:33:35;;;;;;;8.40;4.80;;;;;;;22.23;62.74;100547.25;107384;1276;139336;-89
2022/06/28 04:36:03;;;;;;;8.60;6.20;;;;;;;22.29;62.48;100541.88;107573;1276;109308;-89
2022/06/28 04:38:33;;;;;;;7.60;4.80;;;;;;;22.36;62.73;100540.13;107623;1276;137140;-89
2022/06/28 04:41:09;;;;;;;8.80;5.40;;;;;;;22.44;62.82;100539.60;107650;1276;106492;-89
2022/06/28 04:43:57;;;;;;;9.70;5.40;;;;;;;22.53;62.63;100533.10;107700;1275;137131;-89
2022/06/28 04:46:33;;;;;;;7.80;4.80;;;;;;;22.61;61.91;100531.26;107629;1276;93745;-89
2022/06/28 04:49:27;;;;;;;8.40;4.90;;;;;;;22.71;61.47;100525.25;107657;1276;110116;-89
2022/06/28 04:51:57;;;;;;;9.40;5.30;;;;;;;22.78;61.46;100519.13;107568;1276;138212;-89
2022/06/28 04:54:29;;;;;;;8.60;5.00;;;;;;;22.88;61.13;100519.64;107660;1276;106252;-89
2022/06/28 04:57:20;;;;;;;7.50;4.30;;;;;;;22.98;60.97;100515.75;107691;1276;138859;-89
2022/06/28 05:00:13;;;;;;;10.00;5.40;;;;;;;23.06;60.95;100510.63;107738;1276;92957;-90
2022/06/28 05:02:47;;;;;;;9.70;5.60;;;;;;;23.15;60.11;100508.20;107570;1276;138184;-89
2022/06/28 05:05:51;;;;;;;8.50;5.40;;;;;;;23.25;59.88;100506.02;107705;1276;98377;-90
2022/06/28 05:08:37;;;;;;;8.30;5.30;;;;;;;23.35;59.72;100506.95;107580;1276;138131;-90
2022/06/28 05:11:18;;;;;;;7.90;4.30;;;;;;;23.44;59.58;100507.16;107670;1276;93147;-90
2022/06/28 05:14:08;;;;;;;10.50;5.90;;;;;;;23.57;58.91;100503.14;107743;1276;138654;-89
2022/06/28 05:16:36;;;;;;;10.30;5.10;;;;;;;23.65;58.68;100502.27;107885;1276;108785;-89
2022/06/28 05:19:08;;;;;;;7.90;4.80;;;;;;;23.74;58.66;100498.65;107769;1276;97043;-90
2022/06/28 05:21:38;;;;;;;8.60;4.80;;;;;;;23.81;57.99;100490.70;107625;1276;138652;-90
2022/06/28 05:24:08;;;;;;;13.00;5.90;;;;;;;23.88;57.59;100491.02;107843;1276;93282;-90
2022/06/28 05:26:44;;;;;;;9.70;5.70;;;;;;;23.96;57.63;100490.79;107456;1276;139105;-90
2022/06/28 05:29:14;;;;;;;8.20;4.30;;;;;;;24.05;57.37;100491.35;107876;1276;108679;-91
2022/06/28 05:31:50;;;;;;;10.50;4.90;;;;;;;24.12;57.23;100491.48;107653;1276;139066;-89
2022/06/28 05:34:21;;;;;;;9.20;5.30;;;;;;;24.26;57.24;100495.21;107721;1276;107720;-90
2022/06/28 05:36:50;;;;;;;12.70;5.20;;;;;;;24.36;56.73;100493.18;107708;1277;93476;-89
2022/06/28 05:39:18;;;;;;;9.00;5.00;;;;;;;24.46;57.45;100497.70;107675;1276;138787;-90
2022/06/28 05:41:46;;;;;;;8.00;4.90;;;;;;;24.55;56.06;100493.02;107774;1276;109649;-90
2022/06/28 05:44:18;;;;;;;10.10;5.00;;;;;;;24.62;55.97;100495.17;107405;1279;138795;-90
2022/06/28 05:47:00;;;;;;;10.90;4.80;;;;;;;24.68;55.67;100496.34;107804;1276;108879;-92
2022/06/28 05:49:38;;;;;;;7.90;4.40;;;;;;;24.76;55.80;100496.41;107870;1276;93428;-89
2022/06/28 05:52:06;;;;;;;7.20;4.60;;;;;;;24.86;55.73;100495.72;107635;1276;138534;-91
2022/06/28 05:54:35;;;;;;;7.50;4.30;;;;;;;24.93;55.58;100494.26;107711;1276;109394;-90
2022/06/28 05:57:04;;;;;;;8.50;4.40;;;;;;;24.99;54.42;100490.29;107762;1276;138551;-89
2022/06/28 05:59:32;;;;;;;10.70;5.20;;;;;;;25.05;54.44;100494.61;107642;1276;108910;-90
2022/06/28 06:02:00;;;;;;;12.90;4.70;;;;;;;25.14;54.58;100487.17;107634;1276;139017;-91
2022/06/28 06:04:30;;;;;;;9.20;4.60;;;;;;;25.24;53.94;100487.23;107604;1276;93303;-89
2022/06/28 06:07:01;;;;;;;10.90;5.10;;;;;;;25.28;53.76;100477.98;107875;1276;108828;-89
2022/06/28 06:09:29;;;;;;;7.90;4.70;;;;;;;25.35;53.83;100482.30;107645;1276;138809;-90
2022/06/28 06:11:57;;;;;;;8.60;4.60;;;;;;;25.44;53.89;100480.75;107817;1276;107684;-90
2022/06/28 06:14:25;;;;;;;8.70;4.40;;;;;;;25.51;53.89;100482.31;107729;1276;138900;-90
2022/06/28 06:16:56;;;;;;;8.80;4.50;;;;;;;25.57;52.98;100468.70;107795;1276;93004;-90
2022/06/28 06:19:27;;;;;;;9.60;4.70;;;;;;;25.61;52.79;100469.48;107610;1277;108872;-90
2022/06/28 06:21:55;;;;;;;6.60;4.10;;;;;;;25.66;53.34;100476.30;107479;1276;138451;-90
2022/06/28 06:24:23;;;;;;;10.30;5.00;;;;;;;25.75;53.05;100482.45;107578;1276;107772;-91
2022/06/28 06:27:06;;;;;;;7.90;4.80;;;;;;;25.82;53.08;100481.96;107555;1276;139369;-89
2022/06/28 06:29:38;;;;;;;9.20;5.20;;;;;;;25.87;52.52;100484.77;107889;1276;92875;-90
2022/06/28 06:32:08;;;;;;;8.00;4.20;;;;;;;25.93;52.37;100483.00;107609;1276;138844;-90
2022/06/28 06:35:02;;;;;;;7.70;4.30;;;;;;;26.00;52.12;100484.36;107457;1276;98471;-89
2022/06/28 06:37:30;;;;;;;8.00;4.30;;;;;;;26.07;51.68;100486.18;107670;1276;107751;-90
2022/06/28 06:39:58;;;;;;;7.40;4.50;;;;;;;26.15;52.03;100483.05;107469;1276;138395;-91
2022/06/28 06:42:29;;;;;;;7.90;4.60;;;;;;;26.20;51.34;100486.77;107813;1276;92995;-90
2022/06/28 06:45:02;;;;;;;9.10;5.10;;;;;;;26.26;51.56;100489.14;107620;1276;138395;-90
2022/06/28 06:47:30;;;;;;;9.30;4.70;;;;;;;26.32;51.38;100483.30;107845;1276;98355;-90
2022/06/28 06:49:59;;;;;;;13.90;5.00;;;;;;;26.42;52.01;100477.13;107650;1276;138389;-90
2022/06/28 06:52:29;;;;;;;7.90;4.70;;;;;;;26.51;51.50;100476.64;107853;1276;92970;-90
2022/06/28 06:54:58;;;;;;;7.30;4.50;;;;;;;26.58;51.07;100480.06;107707;1276;93133;-89
2022/06/28 06:57:29;;;;;;;7.20;4.00;;;;;;;26.61;50.93;100479.40;107598;1276;138736;-90
2022/06/28 06:59:58;;;;;;;8.30;4.90;;;;;;;26.68;50.60;100479.31;107846;1276;99359;-89
2022/06/28 07:02:27;;;;;;;9.80;4.70;;;;;;;26.74;50.28;100478.73;107741;1276;138331;-90
2022/06/28 07:04:56;;;;;;;7.00;4.30;;;;;;;26.82;50.42;100476.73;107672;1276;93363;-90
2022/06/28 07:07:25;;;;;;;7.90;4.20;;;;;;;26.93;49.57;100481.74;107615;1278;92997;-90
2022/06/28 07:09:58;;;;;;;7.60;3.90;;;;;;;27.03;49.22;100483.35;107592;1277;138339;-91
2022/06/28 07:12:28;;;;;;;7.80;4.30;;;;;;;27.10;48.99;100481.95;107825;1276;99086;-89
2022/06/28 07:15:06;;;;;;;9.00;4.60;;;;;;;27.19;49.27;100485.98;107707;1276;138310;-90
2022/06/28 07:17:40;;;;;;;6.80;3.80;;;;;;;27.28;48.95;100482.40;107674;1276;93250;-91
2022/06/28 07:20:08;;;;;;;6.10;4.30;;;;;;;27.37;48.67;100479.09;107525;1277;138851;-90
2022/06/28 07:22:37;;;;;;;7.20;4.40;;;;;;;27.51;48.74;100478.29;107773;1276;110428;-89
2022/06/28 07:25:07;;;;;;;9.20;4.70;;;;;;;27.75;47.69;100479.80;107724;1277;98875;-90
2022/06/28 07:27:36;;;;;;;7.90;4.60;;;;;;;27.82;47.11;100486.92;107467;1276;137431;-90
2022/06/28 07:30:08;;;;;;;9.70;5.00;;;;;;;28.05;46.97;100483.28;107615;1276;93512;-89
2022/06/28 07:32:36;;;;;;;10.00;4.70;;;;;;;28.30;47.09;100486.97;107652;1276;137979;-90
2022/06/28 07:35:07;;;;;;;7.80;4.80;;;;;;;28.55;46.93;100488.55;107608;1277;108028;-89
2022/06/28 07:37:37;;;;;;;7.40;4.40;;;;;;;28.74;45.62;100483.65;107768;1276;99028;-90
2022/06/28 07:40:08;;;;;;;7.70;4.30;;;;;;;28.93;45.01;100482.91;107558;1276;138686;-89
2022/06/28 07:42:36;;;;;;;6.50;4.00;;;;;;;29.08;44.28;100483.86;107548;1276;93430;-90
2022/06/28 07:45:36;;;;;;;8.60;4.10;;;;;;;29.12;43.36;100482.20;107477;1276;139299;-91
2022/06/28 07:48:12;;;;;;;5.80;3.70;;;;;;;29.13;43.02;100483.70;107599;1277;108786;-91
2022/06/28 07:53:29;;;;;;;8.20;4.30;;;;;;;29.17;43.03;100481.11;107527;1277;107849;-89
2022/06/28 07:56:08;;;;;;;8.60;4.70;;;;;;;29.30;42.94;100477.58;107199;1276;389470;-90
2022/06/28 07:58:39;;;;;;;8.30;4.30;;;;;;;29.45;43.25;100481.89;107644;1276;94042;-89
2022/06/28 08:01:13;;;;;;;7.40;4.50;;;;;;;29.59;43.67;100483.95;107585;1276;109943;-92
2022/06/28 08:03:44;;;;;;;6.50;3.80;;;;;;;29.74;42.28;100483.98;107275;1276;139765;-91
2022/06/28 08:06:15;;;;;;;7.40;4.00;;;;;;;29.78;41.22;100489.55;107580;1276;108559;-90
2022/06/28 08:08:53;;;;;;;9.50;4.30;;;;;;;29.84;42.09;100492.83;107374;1276;139341;-91
2022/06/28 08:11:25;;;;;;;6.80;4.10;;;;;;;29.97;42.08;100494.96;107505;1277;94034;-92
2022/06/28 08:14:02;;;;;;;8.30;4.40;;;;;;;30.12;41.83;100497.33;107152;1276;139936;-90
2022/06/28 08:16:30;;;;;;;7.90;4.40;;;;;;;30.19;41.09;100494.36;107609;1277;99375;-90
2022/06/28 08:18:58;;;;;;;7.60;4.20;;;;;;;30.25;41.22;100490.98;107634;1276;108930;-90
2022/06/28 08:21:32;;;;;;;7.30;3.90;;;;;;;30.40;41.36;100497.98;107361;1276;137278;-90
2022/06/28 08:24:04;;;;;;;7.00;3.80;;;;;;;30.52;39.96;100497.34;107780;1275;92981;-90
2022/06/28 08:26:42;;;;;;;6.70;3.80;;;;;;;30.57;40.05;100494.92;107413;1277;138443;-91
2022/06/28 08:29:15;;;;;;;6.40;3.90;;;;;;;30.64;39.15;100501.10;107543;1277;99539;-91
2022/06/28 08:32:06;;;;;;;5.90;3.80;;;;;;;30.73;39.62;100506.34;107726;1277;108211;-91
2022/06/28 08:34:37;;;;;;;6.10;3.80;;;;;;;30.84;39.16;100505.29;107730;1276;93770;-90
2022/06/28 08:37:13;;;;;;;7.50;4.30;;;;;;;31.00;38.96;100498.23;107726;1276;92927;-91
2022/06/28 08:39:42;;;;;;;6.20;3.90;;;;;;;31.25;38.97;100497.83;107485;1277;138118;-91
2022/06/28 08:42:12;;;;;;;6.70;4.30;;;;;;;31.41;38.49;100497.94;107378;1277;98444;-91
2022/06/28 08:44:46;;;;;;;7.10;3.80;;;;;;;31.58;39.02;100493.98;107565;1274;138152;-92
2022/06/28 08:47:20;;;;;;;9.60;4.00;;;;;;;31.74;38.28;100493.45;107783;1274;93651;-93
2022/06/28 08:49:57;;;;;;;6.90;3.90;;;;;;;31.83;37.28;100494.08;107727;1274;138179;-88
2022/06/28 08:52:32;;;;;;;6.50;3.40;;;;;;;31.92;36.89;100499.79;107989;1274;108660;-89
2022/06/28 08:55:01;;;;;;;6.00;3.20;;;;;;;32.08;36.23;100499.34;107953;1277;97065;-91
2022/06/28 08:57:32;;;;;;;6.50;3.40;;;;;;;32.13;35.97;100501.77;107905;1275;137072;-88
2022/06/28 09:00:04;;;;;;;8.50;3.80;;;;;;;32.20;35.59;100494.60;107894;1277;92805;-89
2022/06/28 09:02:32;;;;;;;6.70;3.90;;;;;;;32.25;36.50;100491.20;107648;1277;138603;-90
2022/06/28 09:05:03;;;;;;;7.30;3.90;;;;;;;32.41;35.09;100493.48;107593;1276;108746;-91
2022/06/28 09:07:31;;;;;;;6.50;3.70;;;;;;;32.48;35.55;100489.62;107766;1277;99274;-90
2022/06/28 09:10:28;;;;;;;6.80;3.60;;;;;;;32.58;35.60;100483.77;107514;1280;108282;-89
2022/06/28 09:13:18;;;;;;;8.80;3.90;;;;;;;32.70;35.60;100494.06;107263;1279;92986;-89
2022/06/28 09:15:49;;;;;;;7.80;3.80;;;;;;;32.71;35.80;100487.92;107457;1279;138212;-89
2022/06/28 09:18:20;;;;;;;6.40;3.60;;;;;;;32.87;35.89;100486.83;107539;1279;107672;-91
2022/06/28 09:20:53;;;;;;;7.40;3.70;;;;;;;33.23;35.06;100484.38;107295;1279;138643;-92
2022/06/28 09:23:34;;;;;;;6.70;3.80;;;;;;;33.55;34.69;100476.73;107387;1279;107970;-91
2022/06/28 09:26:09;;;;;;;7.20;3.70;;;;;;;34.00;33.74;100474.08;107193;1279;138960;-89
2022/06/28 09:28:46;;;;;;;7.00;3.40;;;;;;;34.74;33.10;100467.20;107476;1278;93335;-91
2022/06/28 09:31:28;;;;;;;7.10;3.70;;;;;;;35.25;31.33;100463.63;107290;1281;108171;-91
2022/06/28 09:34:11;;;;;;;6.00;3.30;;;;;;;35.85;30.45;100461.99;107403;1279;140730;-91
2022/06/28 09:36:55;;;;;;;5.80;3.40;;;;;;;36.33;29.71;100457.43;107401;1281;105902;-92
2022/06/28 09:39:27;;;;;;;6.60;3.50;;;;;;;36.82;29.86;100460.40;107302;1279;138048;-90
2022/06/28 09:41:57;;;;;;;8.00;3.50;;;;;;;37.56;29.21;100461.33;107511;1280;93570;-90
2022/06/28 09:44:50;;;;;;;5.30;3.40;;;;;;;38.26;28.49;100452.66;107192;1280;138813;-90
2022/06/28 09:47:18;;;;;;;5.60;3.10;;;;;;;38.84;27.96;100450.55;107268;1279;99289;-90
2022/06/28 09:49:47;;;;;;;5.60;2.90;;;;;;;39.35;25.78;100445.30;107596;1279;107915;-91
2022/06/28 09:52:27;;;;;;;4.70;2.70;;;;;;;39.43;24.80;100446.24;107037;1281;137914;-91
2022/06/28 09:55:00;;;;;;;6.40;2.80;;;;;;;39.60;24.39;100451.13;107447;1279;93087;-89
2022/06/28 09:57:30;;;;;;;5.10;2.60;;;;;;;40.16;24.33;100456.83;107345;1281;138800;-91
2022/06/28 10:00:01;;;;;;;5.50;2.60;;;;;;;40.63;23.00;100452.95;107359;1279;98283;-92
2022/06/28 10:02:41;;;;;;;6.70;2.80;;;;;;;40.76;22.61;100454.95;107310;1280;138743;-90
2022/06/28 10:05:11;;;;;;;5.30;2.70;;;;;;;41.04;23.05;100454.29;107440;1279;94096;-89
2022/06/28 10:07:41;;;;;;;5.00;2.40;;;;;;;41.34;21.73;100458.71;107449;1280;93437;-89
2022/06/28 10:10:10;;;;;;;5.80;2.40;;;;;;;41.46;21.46;100455.70;107347;1280;138379;-89
2022/06/28 10:15:31;;;;;;;6.70;2.90;;;;;;;41.84;21.47;100453.30;107137;1280;138220;-90
2022/06/28 10:18:18;;;;;;;7.70;2.50;;;;;;;41.89;21.28;100450.73;107457;1279;94022;-89
2022/06/28 10:20:47;;;;;;;4.70;2.40;;;;;;;41.99;21.60;100451.79;107154;1280;137932;-90
2022/06/28 10:23:24;;;;;;;6.50;2.80;;;;;;;42.35;21.15;100449.77;107454;1279;109775;-89
2022/06/28 10:26:14;;;;;;;6.50;2.70;;;;;;;42.91;20.71;100456.89;107366;1280;138344;-90
2022/06/28 10:29:03;;;;;;;5.70;2.40;;;;;;;42.66;20.32;100455.10;107471;1280;107832;-91
2022/06/28 10:31:39;;;;;;;5.20;2.50;;;;;;;42.71;20.68;100450.23;107472;1279;93047;-90
2022/06/28 10:34:16;;;;;;;5.10;2.60;;;;;;;42.89;20.39;100455.34;107109;1280;137739;-91
2022/06/28 10:36:53;;;;;;;4.90;2.70;;;;;;;42.73;19.69;100455.58;107439;1279;109327;-90
2022/06/28 10:39:22;;;;;;;4.40;2.30;;;;;;;42.63;19.75;100448.55;107051;1280;139401;-89
2022/06/28 10:41:52;;;;;;;5.30;2.40;;;;;;;42.53;19.88;100444.21;107469;1279;107774;-90
2022/06/28 10:44:47;;;;;;;5.00;2.60;;;;;;;42.40;19.71;100451.83;107375;1278;139250;-89
2022/06/28 10:47:16;;;;;;;4.90;2.40;;;;;;;42.38;20.11;100441.99;107314;1280;93062;-89
2022/06/28 10:49:44;;;;;;;6.40;2.60;;;;;;;42.63;19.48;100437.74;107397;1280;108252;-90
2022/06/28 10:52:19;;;;;;;5.90;2.70;;;;;;;42.57;19.10;100446.36;107412;1279;137855;-89
2022/06/28 10:54:56;;;;;;;5.10;2.40;;;;;;;42.76;19.18;100442.70;107531;1279;107843;-90
2022/06/28 10:57:35;;;;;;;5.10;2.40;;;;;;;42.43;18.88;100447.73;107371;1280;138600;-90
2022/06/28 11:00:05;;;;;;;4.90;2.40;;;;;;;41.62;20.22;100447.77;107567;1278;93461;-90
2022/06/28 11:02:59;;;;;;;6.20;2.50;;;;;;;41.53;19.89;100445.73;107421;1279;138231;-89
2022/06/28 11:05:50;;;;;;;5.80;2.80;;;;;;;41.88;20.36;100435.09;107315;1280;99559;-89
2022/06/28 11:08:43;;;;;;;6.50;2.90;;;;;;;41.60;20.55;100443.82;107391;1280;138630;-88
2022/06/28 11:11:11;;;;;;;6.30;2.80;;;;;;;40.76;20.91;100447.41;107520;1280;93263;-89
2022/06/28 11:13:39;;;;;;;6.10;2.50;;;;;;;40.03;22.15;100433.52;107465;1279;93473;-90
2022/06/28 11:16:46;;;;;;;6.40;2.70;;;;;;;39.12;22.45;100435.52;107263;1280;138504;-90
2022/06/28 11:19:17;;;;;;;5.20;2.70;;;;;;;38.51;23.95;100438.36;107566;1279;98435;-90
2022/06/28 11:21:46;;;;;;;4.50;2.60;;;;;;;37.78;24.64;100440.84;107430;1279;138875;-91
2022/06/28 11:24:15;;;;;;;6.40;2.70;;;;;;;37.34;24.79;100451.13;107191;1279;92952;-90
2022/06/28 11:29:32;;;;;;;6.80;2.90;;;;;;;36.87;25.77;100448.29;107586;1279;108649;-88
2022/06/28 11:32:23;;;;;;;5.90;3.00;;;;;;;36.70;25.82;100449.39;107449;1278;138405;-91
2022/06/28 11:35:07;;;;;;;6.80;2.90;;;;;;;36.40;26.15;100446.02;107360;1280;108301;-88
2022/06/28 11:37:50;;;;;;;5.70;3.00;;;;;;;36.15;26.55;100443.77;107478;1280;93260;-88
2022/06/28 11:40:38;;;;;;;6.60;2.90;;;;;;;35.83;27.15;100446.15;107445;1278;137624;-90
2022/06/28 11:43:12;;;;;;;5.90;2.80;;;;;;;35.68;26.91;100444.88;107356;1278;109971;-88
2022/06/28 11:46:00;;;;;;;5.90;2.80;;;;;;;35.73;27.46;100446.27;107241;1279;138180;-89
2022/06/28 11:48:31;;;;;;;7.30;3.20;;;;;;;35.66;27.80;100443.07;107380;1280;107805;-89
2022/06/28 11:51:01;;;;;;;5.70;3.10;;;;;;;35.47;27.73;100440.54;107331;1280;139059;-88
2022/06/28 11:53:45;;;;;;;5.70;3.10;;;;;;;35.29;28.72;100442.73;107394;1280;93415;-89
2022/06/28 11:56:13;;;;;;;5.30;3.10;;;;;;;35.09;28.12;100444.28;107148;1279;138912;-88
2022/06/28 11:58:41;;;;;;;5.80;3.20;;;;;;;34.96;28.75;100447.00;107457;1280;98292;-90
2022/06/28 12:01:15;;;;;;;6.10;3.30;;;;;;;34.93;28.90;100446.23;107478;1279;108439;-88
2022/06/28 12:03:43;;;;;;;6.40;2.90;;;;;;;34.98;29.40;100441.42;107358;1279;138645;-91
2022/06/28 12:06:20;;;;;;;5.80;3.20;;;;;;;34.90;29.77;100435.36;107436;1280;93086;-88
2022/06/28 12:08:58;;;;;;;11.20;3.50;;;;;;;34.76;30.37;100433.51;107205;1280;138711;-88